Terminal Aerodrome Forecast
Issued by NWS

Home | Current Version | Previous Version | Text Only | Print | Product List | Glossary On
Versions: 1 2 3 4 5 6 7 8 9 10 11 12 13 14 15 16
669
FTUS44 KLIX 180530
TAFGPT
TAF
KGPT 180530Z 1806/1906 25003KT P6SM FEW040 SCT080
     FM181100 VRB03KT 4SM BR BKN015 BKN040
     FM181600 09004KT 6SM BR SCT050
     FM181900 15006KT P6SM SCT080
     FM182300 14005KT 3SM BR SCT150
     FM190300 14005KT 6SM BR BKN140=

USA.gov is the U.S. government's official web portal to all federal, state and local government web resources and services.